LavenderCAM.net
Leatherhead Weather
 
Leatherhead Weather
 
 





Aviation weather for

London Heathrow (EGLL) and London Gatwick (EGKK)



London Heathrow (EGLL) METAR / Surface Actual
London / Heathrow Airport, United Kingdom (EGLL) 51-29N 000-27W 0M
Oct 14, 2019 - 10:50 AM EDT / 2019.10.14 1450 UTC
Wind: from the E (100 degrees) at 13 MPH (11 KT):0
Visibility: greater than 7 mile(s):0
Sky conditions: overcast
Temperature: 57 F (14 C)
Dew Point: 55 F (13 C)
Relative Humidity: 93%
Pressure (altimeter): 29.59 in. Hg (1002 hPa)
ob: EGLL 141450Z AUTO 10011KT 9999 OVC010 14/13 Q1002
cycle: 15
London Heathrow (EGLL) TAF / Forecast
2019/10/14 13:09
TAF 
      AMD EGLL 141358Z 1413/1518 09010KT 9999 SCT025 
      BECMG 1413/1416 15012KT 
      TEMPO 1413/1415 6000 RA BKN010 
      TEMPO 1415/1421 6000 SHRA BKN012 PROB30 
      TEMPO 1418/1421 18015G25KT 3000 +TSGR BKN008 BKN025CB 
      BECMG 1419/1421 25008KT 
      TEMPO 1421/1509 BKN006 PROB30 
      TEMPO 1500/1506 8000 BKN004 PROB30 
      TEMPO 1506/1509 4000 SHRA 
      TEMPO 1512/1518 6000 SHRA PROB30 
      TEMPO 1515/1518 24015G25KT


London Gatwick (EGKK) METAR / Surface Actual
London / Gatwick Airport, United Kingdom (EGKK) 51-09N 000-11W 0M
Oct 14, 2019 - 10:50 AM EDT / 2019.10.14 1450 UTC
Wind: from the ENE (070 degrees) at 5 MPH (4 KT) (direction variable):0
Visibility: greater than 7 mile(s):0
Sky conditions: partly cloudy
Temperature: 57 F (14 C)
Dew Point: 55 F (13 C)
Relative Humidity: 93%
Pressure (altimeter): 29.56 in. Hg (1001 hPa)
ob: EGKK 141450Z 07004KT 040V100 9999 SCT007 SCT015 14/13 Q1001
cycle: 15
London Gatwick (EGKK) TAF / Forecast
2019/10/14 13:16
TAF 
      AMD EGKK 141309Z 1413/1518 09010KT 9999 SCT020 
      TEMPO 1413/1420 6000 RA BKN010 PROB40 
      TEMPO 1413/1415 3000 RADZ BKN006 
      TEMPO 1415/1420 2500 +SHRA BKN008 BKN020CB 
      BECMG 1416/1419 18012KT PROB30 
      TEMPO 1417/1420 14015G25KT TSGR 
      BECMG 1419/1422 24009KT 
      TEMPO 1420/1507 8000 BKN005 PROB30 
      TEMPO 1503/1509 4000 SHRA BKN004 PROB30 
      TEMPO 1512/1516 6000 SHRA